Sunday, July 22, 2018, 12:32 AM EDT
Back to Local

KOWD, Norwood Memorial Airport

Location: Norwood, MA, United States Lat: 42.183
Local Time: 12:32 AM EDT ( 4:32 GMT) Lon: -71.167
Time Zone: US/Eastern Elev: 49 ft

Show me the last for .
Show Decoded

2018-07-21 23:53 METAR KOWD 220353Z AUTO 08005KT 10SM BKN080 19/16 A3010 RMK AO2 SLP193 T01890161
                 =
2018-07-21 22:53 METAR KOWD 220253Z AUTO 06005KT 10SM SCT065 19/16 A3011 RMK AO2 SLP195 T01890156
                 58004 =
2018-07-21 21:53 METAR KOWD 220153Z 06003KT 10SM FEW060 19/16 A3013 RMK AO2 SLP201 T01890156 =
2018-07-21 20:53 METAR KOWD 220053Z 07007KT 10SM BKN060 21/16 A3012 RMK AO2 SLP199 T02060161 =
2018-07-21 20:02 METAR KOWD 220002Z 07007KT 10SM FEW023 21/16 A3012 RMK AO2 T02060156 =
2018-07-21 19:53 METAR KOWD 212353Z 07007KT 10SM BKN023 21/16 A3012 RMK AO2 SLP200 T02110156
                 10267 20211 53005 =
2018-07-21 19:31 METAR KOWD 212331Z 08006KT 10SM BKN024 22/16 A3012 RMK AO2 T02170161 =
2018-07-21 18:53 METAR KOWD 212253Z 07008KT 10SM SCT024 22/16 A3011 RMK AO2 SLP197 T02220156 =
2018-07-21 17:53 METAR KOWD 212153Z 09007KT 10SM FEW027 23/16 A3011 RMK AO2 SLP195 T02280161 =
2018-07-21 16:53 METAR KOWD 212053Z 04007KT 10SM CLR 24/17 A3011 RMK AO2 SLP195 T02440167 55008 =
2018-07-21 15:53 METAR KOWD 211953Z 03012G17KT 10SM CLR 25/16 A3010 RMK AO2 SLP192 T02500161 =
2018-07-21 14:53 METAR KOWD 211853Z 06008KT 10SM CLR 27/14 A3012 RMK AO2 SLP198 T02670144 =
2018-07-21 13:53 METAR KOWD 211753Z 07008KT 10SM BKN044 26/14 A3013 RMK AO2 SLP203 T02560144
                 10267 20189 58009 =
2018-07-21 12:53 METAR KOWD 211653Z 10009KT 10SM SCT043 26/15 A3015 RMK AO2 SLP208 T02560150 =
2018-07-21 11:53 METAR KOWD 211553Z 10007KT 10SM SCT042 26/14 A3015 RMK AO2 SLP209 T02560144 =
2018-07-21 10:53 METAR KOWD 211453Z 10010KT 10SM CLR 25/13 A3016 RMK AO2 SLP212 T02500133 58000 =
2018-07-21 09:53 METAR KOWD 211353Z VRB05KT 10SM CLR 23/13 A3016 RMK AO2 SLP213 T02330128 =
2018-07-21 08:53 METAR KOWD 211253Z 14003KT 10SM CLR 22/13 A3016 RMK AO2 SLP214 T02220128 =
2018-07-21 07:53 METAR KOWD 211153Z 00000KT 10SM CLR 19/16 A3016 RMK AO2 SLP212 T01890156 10189
                 20094 53002 =
2018-07-21 06:53 METAR KOWD 211053Z 00000KT 10SM CLR 14/14 A3016 RMK AO2 SLP212 T01440139 =
2018-07-21 06:43 METAR KOWD 211043Z 00000KT 10SM FEW002 13/13 A3016 RMK AO2 T01330128 =
2018-07-21 06:36 METAR KOWD 211036Z 00000KT 1 1/2SM BR SCT002 13/13 A3016 RMK AO2 T01280128 =
2018-07-21 06:33 METAR KOWD 211033Z 00000KT 3/4SM BR VV002 13/12 A3016 RMK AO2 T01280122 =
2018-07-21 06:26 METAR KOWD 211026Z AUTO 00000KT 1SM BR VV002 12/12 A3015 RMK AO2 T01220117 =
2018-07-21 06:13 METAR KOWD 211013Z AUTO 00000KT 3SM BR BKN001 12/12 A3015 RMK AO2 T01170117 =
2018-07-21 05:53 METAR KOWD 210953Z AUTO 00000KT 1/4SM FG VV001 11/11 A3015 RMK AO2 SLP210
                 T01110106 =
2018-07-21 05:18 METAR KOWD 210918Z AUTO 00000KT 1/4SM FG VV002 10/09 A3015 RMK AO2 T01000089 =
2018-07-21 05:11 METAR KOWD 210911Z AUTO 00000KT 1 1/4SM BR BKN002 10/09 A3016 RMK AO2 T01000089
                 =
2018-07-21 05:00 METAR KOWD 210900Z AUTO 00000KT 3SM BR BKN002 11/10 A3016 RMK AO2 T01060100 =
2018-07-21 04:58 METAR KOWD 210858Z AUTO 00000KT 1 1/2SM BR SCT002 11/10 A3016 RMK AO2 T01110100
                 =
2018-07-21 04:53 METAR KOWD 210853Z AUTO 00000KT 1/2SM FG VV001 11/10 A3015 RMK AO2 SLP210
                 T01110100 53001 =
2018-07-21 04:40 METAR KOWD 210840Z AUTO 00000KT 1/2SM FG VV002 11/09 A3015 RMK AO2 T01060094 =
2018-07-21 04:32 METAR KOWD 210832Z AUTO 00000KT 1 3/4SM BR FEW002 10/09 A3015 RMK AO2 VIS 3/4V5
                 T01000094 =
2018-07-21 04:28 METAR KOWD 210828Z AUTO 00000KT 2 1/2SM BR CLR 11/10 A3015 RMK AO2 VIS 3/4V5
                 T01110100 =
2018-07-21 04:22 METAR KOWD 210822Z AUTO 00000KT 3/4SM BR CLR 12/11 A3015 RMK AO2 T01170106 =
2018-07-21 04:05 METAR KOWD 210805Z AUTO 00000KT 1/2SM FG VV002 11/09 A3016 RMK AO2 VIS 1/4V5
                 T01110094 =
2018-07-21 04:02 METAR KOWD 210802Z AUTO 00000KT 1 1/2SM BR CLR 11/09 A3016 RMK AO2 VIS 1/2V5
                 T01060094 =
2018-07-21 03:53 METAR KOWD 210753Z AUTO 00000KT 9SM FEW002 11/11 A3015 RMK AO2 SLP210 T01110106
                 =
2018-07-21 03:40 METAR KOWD 210740Z AUTO 00000KT 10SM SCT002 11/10 A3016 RMK AO2 T01110100 =
2018-07-21 03:24 METAR KOWD 210724Z AUTO 00000KT 10SM BKN002 11/11 A3015 RMK AO2 T01110106 =
2018-07-21 03:09 METAR KOWD 210709Z AUTO 00000KT 10SM SCT002 12/11 A3015 RMK AO2 T01220111 =
2018-07-21 02:53 METAR KOWD 210653Z AUTO 00000KT 5SM BR CLR 12/12 A3015 RMK AO2 SLP209 T01170117
                 =
2018-07-21 02:35 METAR KOWD 210635Z AUTO 00000KT 3SM BR SCT001 13/12 A3015 RMK AO2 T01330122 =
2018-07-21 02:32 METAR KOWD 210632Z AUTO 00000KT 1 1/4SM BR SCT001 13/12 A3015 RMK AO2 VIS 1/2V5
                 T01280122 =
2018-07-21 01:53 METAR KOWD 210553Z AUTO 00000KT 1/4SM FG VV002 14/13 A3015 RMK AO2 SLP209
                 T01390133 10239 20133 57001 =
2018-07-21 01:32 METAR KOWD 210532Z AUTO 00000KT 1/4SM FG VV002 14/13 A3015 RMK AO2 T01390128 =
2018-07-21 01:25 METAR KOWD 210525Z AUTO 00000KT 1/2SM FG CLR 14/13 A3015 RMK AO2 T01390128 =
2018-07-21 01:15 METAR KOWD 210515Z AUTO 00000KT 1 3/4SM BR CLR 13/12 A3015 RMK AO2 VIS 3/4V5
                 T01330122 =
2018-07-21 00:53 METAR KOWD 210453Z AUTO 00000KT 4SM BR CLR 16/14 A3015 RMK AO2 SLP210 T01610144
                 403000117 =

Support USWX by starting your Amazon purchase here.